sensor_id;sensor_type;location;lat;lon;timestamp;P1;durP1;ratioP1;P2;durP2;ratioP2
62010;SDS011;47967;51.756;10.174;2022-12-16T05:03:55;14.32;;;7.45;;
62010;SDS011;47967;51.756;10.174;2022-12-16T05:08:15;12.88;;;5.88;;
62010;SDS011;47967;51.756;10.174;2022-12-16T05:12:36;16.08;;;6.65;;
62010;SDS011;47967;51.756;10.174;2022-12-16T05:16:56;13.25;;;6.60;;
62010;SDS011;47967;51.756;10.174;2022-12-16T05:21:18;16.85;;;6.95;;
62010;SDS011;47967;51.756;10.174;2022-12-16T05:25:38;18.25;;;8.93;;
62010;SDS011;47967;51.756;10.174;2022-12-16T05:29:59;17.95;;;7.22;;
62010;SDS011;47967;51.756;10.174;2022-12-16T05:34:19;15.48;;;7.22;;
62010;SDS011;47967;51.756;10.174;2022-12-16T05:38:41;11.98;;;5.82;;
62010;SDS011;47967;51.756;10.174;2022-12-16T05:43:01;22.27;;;7.20;;
62010;SDS011;47967;51.756;10.174;2022-12-16T05:47:21;17.17;;;7.90;;
62010;SDS011;47967;51.756;10.174;2022-12-16T05:51:42;13.75;;;6.68;;
62010;SDS011;47967;51.756;10.174;2022-12-16T05:56:04;17.10;;;8.23;;
62010;SDS011;47967;51.756;10.174;2022-12-16T06:00:37;15.93;;;8.10;;
62010;SDS011;47967;51.756;10.174;2022-12-16T06:04:57;17.45;;;7.60;;
62010;SDS011;47967;51.756;10.174;2022-12-16T06:09:17;17.88;;;8.85;;
62010;SDS011;47967;51.756;10.174;2022-12-16T06:13:39;18.65;;;8.20;;
62010;SDS011;47967;51.756;10.174;2022-12-16T06:17:59;17.10;;;6.90;;
62010;SDS011;47967;51.756;10.174;2022-12-16T06:22:20;15.88;;;8.07;;
62010;SDS011;47967;51.756;10.174;2022-12-16T06:26:40;17.40;;;8.23;;
62010;SDS011;47967;51.756;10.174;2022-12-16T06:31:02;18.33;;;8.38;;
62010;SDS011;47967;51.756;10.174;2022-12-16T06:35:22;21.58;;;9.30;;
62010;SDS011;47967;51.756;10.174;2022-12-16T06:39:42;13.32;;;7.32;;
62010;SDS011;47967;51.756;10.174;2022-12-16T06:44:02;10.40;;;5.32;;
62010;SDS011;47967;51.756;10.174;2022-12-16T06:48:24;12.43;;;6.65;;
62010;SDS011;47967;51.756;10.174;2022-12-16T06:52:45;13.82;;;6.40;;
62010;SDS011;47967;51.756;10.174;2022-12-16T06:57:05;17.67;;;6.18;;
62010;SDS011;47967;51.756;10.174;2022-12-16T07:01:25;16.15;;;6.88;;
62010;SDS011;47967;51.756;10.174;2022-12-16T07:05:47;11.73;;;5.85;;
62010;SDS011;47967;51.756;10.174;2022-12-16T07:10:19;19.45;;;6.88;;
62010;SDS011;47967;51.756;10.174;2022-12-16T07:14:39;19.45;;;6.60;;
62010;SDS011;47967;51.756;10.174;2022-12-16T07:18:59;17.25;;;7.80;;
62010;SDS011;47967;51.756;10.174;2022-12-16T07:23:21;20.85;;;10.13;;
62010;SDS011;47967;51.756;10.174;2022-12-16T07:27:44;23.00;;;9.75;;
62010;SDS011;47967;51.756;10.174;2022-12-16T07:36:24;19.10;;;10.00;;
62010;SDS011;47967;51.756;10.174;2022-12-16T07:40:46;19.45;;;8.88;;
62010;SDS011;47967;51.756;10.174;2022-12-16T07:45:07;21.23;;;9.80;;
62010;SDS011;47967;51.756;10.174;2022-12-16T07:49:28;20.08;;;9.45;;
62010;SDS011;47967;51.756;10.174;2022-12-16T07:53:47;17.00;;;10.05;;
62010;SDS011;47967;51.756;10.174;2022-12-16T07:58:09;16.17;;;7.65;;
62010;SDS011;47967;51.756;10.174;2022-12-16T08:02:29;21.92;;;10.43;;
62010;SDS011;47967;51.756;10.174;2022-12-16T08:06:51;16.35;;;8.68;;
62010;SDS011;47967;51.756;10.174;2022-12-16T08:11:11;19.85;;;8.68;;
62010;SDS011;47967;51.756;10.174;2022-12-16T08:15:33;21.20;;;9.35;;
62010;SDS011;47967;51.756;10.174;2022-12-16T08:19:53;21.90;;;9.77;;
62010;SDS011;47967;51.756;10.174;2022-12-16T08:24:14;20.05;;;8.68;;
62010;SDS011;47967;51.756;10.174;2022-12-16T08:28:34;19.00;;;9.63;;
62010;SDS011;47967;51.756;10.174;2022-12-16T08:32:56;24.52;;;11.57;;
62010;SDS011;47967;51.756;10.174;2022-12-16T08:37:30;21.55;;;10.15;;
62010;SDS011;47967;51.756;10.174;2022-12-16T08:41:51;19.60;;;10.50;;
62010;SDS011;47967;51.756;10.174;2022-12-16T08:46:11;24.52;;;11.05;;
62010;SDS011;47967;51.756;10.174;2022-12-16T08:50:38;25.85;;;11.50;;
62010;SDS011;47967;51.756;10.174;2022-12-16T08:54:58;25.25;;;11.35;;
62010;SDS011;47967;51.756;10.174;2022-12-16T08:59:19;24.45;;;11.10;;
62010;SDS011;47967;51.756;10.174;2022-12-16T09:03:39;27.00;;;11.55;;
62010;SDS011;47967;51.756;10.174;2022-12-16T09:08:02;19.95;;;9.98;;
62010;SDS011;47967;51.756;10.174;2022-12-16T09:12:22;23.23;;;9.80;;
62010;SDS011;47967;51.756;10.174;2022-12-16T09:16:43;17.23;;;8.98;;
62010;SDS011;47967;51.756;10.174;2022-12-16T09:21:03;24.83;;;11.25;;
62010;SDS011;47967;51.756;10.174;2022-12-16T09:25:29;24.02;;;11.52;;
62010;SDS011;47967;51.756;10.174;2022-12-16T09:29:49;28.80;;;12.60;;
62010;SDS011;47967;51.756;10.174;2022-12-16T09:34:09;29.00;;;12.60;;
62010;SDS011;47967;51.756;10.174;2022-12-16T09:38:33;25.65;;;12.90;;
62010;SDS011;47967;51.756;10.174;2022-12-16T09:42:56;25.92;;;11.35;;
62010;SDS011;47967;51.756;10.174;2022-12-16T09:47:28;35.08;;;11.13;;
62010;SDS011;47967;51.756;10.174;2022-12-16T09:51:54;28.67;;;12.95;;
62010;SDS011;47967;51.756;10.174;2022-12-16T09:56:20;30.65;;;13.43;;
62010;SDS011;47967;51.756;10.174;2022-12-16T10:00:48;27.60;;;12.68;;
62010;SDS011;47967;51.756;10.174;2022-12-16T10:05:09;25.73;;;12.65;;
62010;SDS011;47967;51.756;10.174;2022-12-16T10:09:32;32.83;;;14.32;;
62010;SDS011;47967;51.756;10.174;2022-12-16T10:14:01;34.45;;;14.48;;
62010;SDS011;47967;51.756;10.174;2022-12-16T10:18:31;31.35;;;12.77;;
62010;SDS011;47967;51.756;10.174;2022-12-16T10:22:59;28.25;;;13.32;;
62010;SDS011;47967;51.756;10.174;2022-12-16T10:27:40;30.55;;;15.57;;
62010;SDS011;47967;51.756;10.174;2022-12-16T10:32:07;31.95;;;15.43;;
62010;SDS011;47967;51.756;10.174;2022-12-16T10:36:36;34.78;;;14.73;;
62010;SDS011;47967;51.756;10.174;2022-12-16T10:45:20;30.55;;;14.88;;
62010;SDS011;47967;51.756;10.174;2022-12-16T10:49:43;32.83;;;14.75;;
62010;SDS011;47967;51.756;10.174;2022-12-16T10:54:13;32.05;;;13.63;;
62010;SDS011;47967;51.756;10.174;2022-12-16T10:58:45;24.27;;;12.82;;
62010;SDS011;47967;51.756;10.174;2022-12-16T11:03:17;32.78;;;13.63;;
62010;SDS011;47967;51.756;10.174;2022-12-16T11:07:49;31.60;;;13.13;;
62010;SDS011;47967;51.756;10.174;2022-12-16T11:12:23;28.95;;;13.65;;
62010;SDS011;47967;51.756;10.174;2022-12-16T11:21:08;27.92;;;12.45;;
62010;SDS011;47967;51.756;10.174;2022-12-16T11:25:33;26.25;;;12.52;;
62010;SDS011;47967;51.756;10.174;2022-12-16T11:29:55;33.15;;;12.48;;
62010;SDS011;47967;51.756;10.174;2022-12-16T11:34:16;25.38;;;12.23;;
62010;SDS011;47967;51.756;10.174;2022-12-16T11:38:40;29.73;;;12.67;;
62010;SDS011;47967;51.756;10.174;2022-12-16T11:43:03;30.40;;;11.38;;
62010;SDS011;47967;51.756;10.174;2022-12-16T11:47:29;27.85;;;15.88;;
62010;SDS011;47967;51.756;10.174;2022-12-16T11:51:55;36.60;;;16.00;;
62010;SDS011;47967;51.756;10.174;2022-12-16T11:56:41;26.92;;;13.75;;
62010;SDS011;47967;51.756;10.174;2022-12-16T12:01:05;23.83;;;13.52;;
62010;SDS011;47967;51.756;10.174;2022-12-16T12:05:35;28.77;;;12.50;;
62010;SDS011;47967;51.756;10.174;2022-12-16T12:10:00;25.27;;;12.60;;
62010;SDS011;47967;51.756;10.174;2022-12-16T12:14:30;24.10;;;12.35;;
62010;SDS011;47967;51.756;10.174;2022-12-16T12:18:56;28.75;;;14.27;;
62010;SDS011;47967;51.756;10.174;2022-12-16T12:23:26;30.27;;;14.55;;
62010;SDS011;47967;51.756;10.174;2022-12-16T12:27:55;27.98;;;14.90;;
62010;SDS011;47967;51.756;10.174;2022-12-16T12:32:25;28.77;;;15.20;;
62010;SDS011;47967;51.756;10.174;2022-12-16T12:36:55;30.50;;;15.57;;
62010;SDS011;47967;51.756;10.174;2022-12-16T12:41:25;30.25;;;15.32;;
62010;SDS011;47967;51.756;10.174;2022-12-16T12:45:49;26.20;;;13.95;;
62010;SDS011;47967;51.756;10.174;2022-12-16T12:50:21;31.52;;;15.15;;
62010;SDS011;47967;51.756;10.174;2022-12-16T12:54:47;29.48;;;14.63;;
62010;SDS011;47967;51.756;10.174;2022-12-16T12:59:14;36.15;;;15.88;;
62010;SDS011;47967;51.756;10.174;2022-12-16T13:03:41;32.63;;;16.35;;
62010;SDS011;47967;51.756;10.174;2022-12-16T13:12:55;36.53;;;18.30;;
62010;SDS011;47967;51.756;10.174;2022-12-16T13:22:48;32.72;;;17.33;;
62010;SDS011;47967;51.756;10.174;2022-12-16T13:27:09;30.02;;;16.73;;
62010;SDS011;47967;51.756;10.174;2022-12-16T13:31:31;42.73;;;17.70;;
62010;SDS011;47967;51.756;10.174;2022-12-16T13:35:53;31.77;;;16.35;;
62010;SDS011;47967;51.756;10.174;2022-12-16T13:40:18;36.63;;;16.92;;
62010;SDS011;47967;51.756;10.174;2022-12-16T13:44:52;32.05;;;16.00;;
62010;SDS011;47967;51.756;10.174;2022-12-16T13:58:22;29.33;;;16.13;;
62010;SDS011;47967;51.756;10.174;2022-12-16T14:02:50;28.67;;;15.13;;
62010;SDS011;47967;51.756;10.174;2022-12-16T14:07:12;27.55;;;15.00;;
62010;SDS011;47967;51.756;10.174;2022-12-16T14:11:35;31.23;;;15.88;;
62010;SDS011;47967;51.756;10.174;2022-12-16T14:16:07;35.50;;;16.48;;
62010;SDS011;47967;51.756;10.174;2022-12-16T14:20:35;31.75;;;16.70;;
62010;SDS011;47967;51.756;10.174;2022-12-16T14:25:04;33.10;;;16.35;;
62010;SDS011;47967;51.756;10.174;2022-12-16T14:29:31;32.60;;;17.58;;
62010;SDS011;47967;51.756;10.174;2022-12-16T14:33:53;48.85;;;17.70;;
62010;SDS011;47967;51.756;10.174;2022-12-16T14:42:51;29.58;;;14.02;;
62010;SDS011;47967;51.756;10.174;2022-12-16T14:47:14;28.38;;;13.20;;
62010;SDS011;47967;51.756;10.174;2022-12-16T14:51:43;31.20;;;14.98;;
62010;SDS011;47967;51.756;10.174;2022-12-16T14:56:08;28.73;;;14.50;;
62010;SDS011;47967;51.756;10.174;2022-12-16T15:00:33;35.53;;;15.35;;
62010;SDS011;47967;51.756;10.174;2022-12-16T15:05:00;26.88;;;14.82;;
62010;SDS011;47967;51.756;10.174;2022-12-16T15:09:24;32.10;;;16.80;;
62010;SDS011;47967;51.756;10.174;2022-12-16T15:13:47;33.40;;;15.52;;
62010;SDS011;47967;51.756;10.174;2022-12-16T15:18:14;27.73;;;14.68;;
62010;SDS011;47967;51.756;10.174;2022-12-16T15:22:42;28.25;;;13.68;;
62010;SDS011;47967;51.756;10.174;2022-12-16T15:27:23;29.17;;;13.93;;
62010;SDS011;47967;51.756;10.174;2022-12-16T15:31:45;25.15;;;12.68;;
62010;SDS011;47967;51.756;10.174;2022-12-16T15:36:05;30.02;;;13.00;;
62010;SDS011;47967;51.756;10.174;2022-12-16T15:40:49;24.13;;;12.73;;
62010;SDS011;47967;51.756;10.174;2022-12-16T15:45:17;29.35;;;14.15;;
62010;SDS011;47967;51.756;10.174;2022-12-16T15:49:44;26.55;;;14.23;;
62010;SDS011;47967;51.756;10.174;2022-12-16T15:54:11;29.92;;;14.90;;
62010;SDS011;47967;51.756;10.174;2022-12-16T15:58:35;34.17;;;15.63;;
62010;SDS011;47967;51.756;10.174;2022-12-16T16:02:56;29.13;;;14.82;;
62010;SDS011;47967;51.756;10.174;2022-12-16T16:07:18;29.42;;;13.93;;
62010;SDS011;47967;51.756;10.174;2022-12-16T16:11:40;28.10;;;13.45;;
62010;SDS011;47967;51.756;10.174;2022-12-16T16:16:00;29.35;;;14.35;;
62010;SDS011;47967;51.756;10.174;2022-12-16T16:20:23;35.30;;;14.65;;
62010;SDS011;47967;51.756;10.174;2022-12-16T16:24:44;25.50;;;13.40;;
62010;SDS011;47967;51.756;10.174;2022-12-16T16:29:04;27.17;;;14.05;;
62010;SDS011;47967;51.756;10.174;2022-12-16T16:33:25;27.65;;;14.55;;
62010;SDS011;47967;51.756;10.174;2022-12-16T16:37:46;31.50;;;15.38;;
62010;SDS011;47967;51.756;10.174;2022-12-16T16:42:07;36.90;;;15.65;;
62010;SDS011;47967;51.756;10.174;2022-12-16T16:46:31;25.48;;;13.02;;
62010;SDS011;47967;51.756;10.174;2022-12-16T16:50:55;28.58;;;14.23;;
62010;SDS011;47967;51.756;10.174;2022-12-16T16:55:19;29.88;;;15.57;;
62010;SDS011;47967;51.756;10.174;2022-12-16T16:59:41;29.15;;;14.35;;
62010;SDS011;47967;51.756;10.174;2022-12-16T17:04:01;30.40;;;15.45;;
62010;SDS011;47967;51.756;10.174;2022-12-16T17:08:22;35.20;;;16.17;;
62010;SDS011;47967;51.756;10.174;2022-12-16T17:12:43;32.95;;;18.02;;
62010;SDS011;47967;51.756;10.174;2022-12-16T17:17:05;35.73;;;18.63;;
62010;SDS011;47967;51.756;10.174;2022-12-16T17:21:25;36.70;;;17.33;;
62010;SDS011;47967;51.756;10.174;2022-12-16T17:25:54;28.48;;;13.48;;
62010;SDS011;47967;51.756;10.174;2022-12-16T17:30:16;29.13;;;14.13;;
62010;SDS011;47967;51.756;10.174;2022-12-16T17:34:47;29.02;;;14.68;;
62010;SDS011;47967;51.756;10.174;2022-12-16T17:39:07;36.95;;;15.13;;
62010;SDS011;47967;51.756;10.174;2022-12-16T17:43:29;29.17;;;14.00;;
62010;SDS011;47967;51.756;10.174;2022-12-16T17:47:47;28.85;;;14.18;;
62010;SDS011;47967;51.756;10.174;2022-12-16T17:52:08;28.95;;;13.90;;
62010;SDS011;47967;51.756;10.174;2022-12-16T17:56:28;28.58;;;14.02;;
62010;SDS011;47967;51.756;10.174;2022-12-16T18:00:48;23.67;;;12.65;;
62010;SDS011;47967;51.756;10.174;2022-12-16T18:05:10;27.70;;;12.30;;
62010;SDS011;47967;51.756;10.174;2022-12-16T18:09:41;25.17;;;12.25;;
62010;SDS011;47967;51.756;10.174;2022-12-16T18:14:01;33.97;;;14.20;;
62010;SDS011;47967;51.756;10.174;2022-12-16T18:18:22;25.70;;;13.45;;
62010;SDS011;47967;51.756;10.174;2022-12-16T18:22:48;25.38;;;13.27;;
62010;SDS011;47967;51.756;10.174;2022-12-16T18:27:11;27.25;;;13.50;;
62010;SDS011;47967;51.756;10.174;2022-12-16T18:31:31;32.40;;;13.20;;
62010;SDS011;47967;51.756;10.174;2022-12-16T18:35:52;28.75;;;13.23;;
62010;SDS011;47967;51.756;10.174;2022-12-16T18:40:15;34.55;;;16.83;;
62010;SDS011;47967;51.756;10.174;2022-12-16T18:44:35;26.85;;;15.52;;
62010;SDS011;47967;51.756;10.174;2022-12-16T18:49:01;40.95;;;19.13;;
62010;SDS011;47967;51.756;10.174;2022-12-16T18:53:23;39.22;;;17.98;;
62010;SDS011;47967;51.756;10.174;2022-12-16T18:57:45;33.42;;;15.25;;
62010;SDS011;47967;51.756;10.174;2022-12-16T19:02:25;33.53;;;15.90;;
62010;SDS011;47967;51.756;10.174;2022-12-16T19:06:45;32.42;;;14.35;;
62010;SDS011;47967;51.756;10.174;2022-12-16T19:11:05;23.27;;;11.00;;
62010;SDS011;47967;51.756;10.174;2022-12-16T19:15:30;27.60;;;11.98;;
62010;SDS011;47967;51.756;10.174;2022-12-16T19:19:50;24.55;;;13.10;;
62010;SDS011;47967;51.756;10.174;2022-12-16T19:24:10;28.80;;;15.65;;
62010;SDS011;47967;51.756;10.174;2022-12-16T19:28:30;38.63;;;17.65;;
62010;SDS011;47967;51.756;10.174;2022-12-16T19:32:53;47.17;;;20.17;;
62010;SDS011;47967;51.756;10.174;2022-12-16T19:37:13;35.75;;;16.90;;
62010;SDS011;47967;51.756;10.174;2022-12-16T19:41:33;38.08;;;20.88;;
62010;SDS011;47967;51.756;10.174;2022-12-16T19:45:56;27.20;;;13.98;;
62010;SDS011;47967;51.756;10.174;2022-12-16T19:50:18;29.08;;;15.35;;
62010;SDS011;47967;51.756;10.174;2022-12-16T19:54:38;29.20;;;13.20;;
62010;SDS011;47967;51.756;10.174;2022-12-16T19:59:02;33.30;;;12.57;;
62010;SDS011;47967;51.756;10.174;2022-12-16T20:03:22;27.63;;;13.50;;
62010;SDS011;47967;51.756;10.174;2022-12-16T20:07:44;33.25;;;13.93;;
62010;SDS011;47967;51.756;10.174;2022-12-16T20:12:04;31.85;;;13.38;;
62010;SDS011;47967;51.756;10.174;2022-12-16T20:16:25;33.42;;;15.50;;
62010;SDS011;47967;51.756;10.174;2022-12-16T20:20:45;35.28;;;15.15;;
62010;SDS011;47967;51.756;10.174;2022-12-16T20:25:07;33.20;;;15.32;;
62010;SDS011;47967;51.756;10.174;2022-12-16T20:29:27;37.00;;;16.98;;
62010;SDS011;47967;51.756;10.174;2022-12-16T20:33:51;54.65;;;24.58;;
62010;SDS011;47967;51.756;10.174;2022-12-16T20:38:12;44.20;;;22.92;;
62010;SDS011;47967;51.756;10.174;2022-12-16T20:42:33;35.95;;;16.05;;
62010;SDS011;47967;51.756;10.174;2022-12-16T20:46:53;38.58;;;17.20;;
62010;SDS011;47967;51.756;10.174;2022-12-16T20:51:14;39.47;;;17.10;;
62010;SDS011;47967;51.756;10.174;2022-12-16T20:55:34;40.95;;;18.65;;
62010;SDS011;47967;51.756;10.174;2022-12-16T20:59:57;41.67;;;18.48;;
62010;SDS011;47967;51.756;10.174;2022-12-16T21:04:18;44.08;;;21.27;;
62010;SDS011;47967;51.756;10.174;2022-12-16T21:08:38;35.65;;;14.57;;
62010;SDS011;47967;51.756;10.174;2022-12-16T21:13:03;37.58;;;17.30;;
62010;SDS011;47967;51.756;10.174;2022-12-16T21:17:25;30.73;;;16.15;;
62010;SDS011;47967;51.756;10.174;2022-12-16T21:21:45;25.70;;;13.70;;
62010;SDS011;47967;51.756;10.174;2022-12-16T21:26:05;28.20;;;14.18;;
62010;SDS011;47967;51.756;10.174;2022-12-16T21:30:26;34.78;;;15.90;;
62010;SDS011;47967;51.756;10.174;2022-12-16T21:34:48;31.67;;;14.82;;
62010;SDS011;47967;51.756;10.174;2022-12-16T21:39:09;30.75;;;15.25;;
62010;SDS011;47967;51.756;10.174;2022-12-16T21:43:30;32.10;;;15.38;;
62010;SDS011;47967;51.756;10.174;2022-12-16T21:47:51;35.35;;;15.82;;
62010;SDS011;47967;51.756;10.174;2022-12-16T21:52:13;31.35;;;15.02;;
62010;SDS011;47967;51.756;10.174;2022-12-16T21:56:33;29.88;;;15.07;;
